sensor_id;sensor_type;location;lat;lon;timestamp;P1;durP1;ratioP1;P2;durP2;ratioP2
19560;SDS011;9927;47.792;10.616;2024-02-23T04:01:43;2.60;;;2.60;;
19560;SDS011;9927;47.792;10.616;2024-02-23T04:04:11;2.57;;;2.57;;
19560;SDS011;9927;47.792;10.616;2024-02-23T04:06:38;2.60;;;2.60;;
19560;SDS011;9927;47.792;10.616;2024-02-23T04:09:06;2.90;;;2.70;;
19560;SDS011;9927;47.792;10.616;2024-02-23T04:11:35;2.63;;;2.63;;
19560;SDS011;9927;47.792;10.616;2024-02-23T04:14:02;2.90;;;2.80;;
19560;SDS011;9927;47.792;10.616;2024-02-23T04:16:32;2.60;;;2.60;;
19560;SDS011;9927;47.792;10.616;2024-02-23T04:18:59;2.60;;;2.50;;
19560;SDS011;9927;47.792;10.616;2024-02-23T04:21:27;2.80;;;2.70;;
19560;SDS011;9927;47.792;10.616;2024-02-23T04:23:54;2.60;;;2.60;;
19560;SDS011;9927;47.792;10.616;2024-02-23T04:26:21;2.60;;;2.60;;
19560;SDS011;9927;47.792;10.616;2024-02-23T04:28:49;2.80;;;2.80;;
19560;SDS011;9927;47.792;10.616;2024-02-23T04:31:16;2.60;;;2.60;;
19560;SDS011;9927;47.792;10.616;2024-02-23T04:33:43;2.77;;;2.70;;
19560;SDS011;9927;47.792;10.616;2024-02-23T04:36:11;2.70;;;2.70;;
19560;SDS011;9927;47.792;10.616;2024-02-23T04:38:38;2.70;;;2.70;;
19560;SDS011;9927;47.792;10.616;2024-02-23T04:41:06;2.70;;;2.70;;
19560;SDS011;9927;47.792;10.616;2024-02-23T04:43:34;2.70;;;2.70;;
19560;SDS011;9927;47.792;10.616;2024-02-23T04:46:01;2.60;;;2.60;;
19560;SDS011;9927;47.792;10.616;2024-02-23T04:48:29;2.90;;;2.70;;
19560;SDS011;9927;47.792;10.616;2024-02-23T04:50:58;2.70;;;2.70;;
19560;SDS011;9927;47.792;10.616;2024-02-23T04:53:25;2.73;;;2.70;;
19560;SDS011;9927;47.792;10.616;2024-02-23T04:55:52;2.70;;;2.70;;
19560;SDS011;9927;47.792;10.616;2024-02-23T04:58:19;4.27;;;2.80;;
19560;SDS011;9927;47.792;10.616;2024-02-23T05:00:47;2.93;;;2.80;;
19560;SDS011;9927;47.792;10.616;2024-02-23T05:03:14;2.90;;;2.90;;
19560;SDS011;9927;47.792;10.616;2024-02-23T05:05:42;2.90;;;2.80;;
19560;SDS011;9927;47.792;10.616;2024-02-23T05:08:10;2.80;;;2.70;;
19560;SDS011;9927;47.792;10.616;2024-02-23T05:10:37;2.60;;;2.60;;
19560;SDS011;9927;47.792;10.616;2024-02-23T05:13:04;2.87;;;2.80;;
19560;SDS011;9927;47.792;10.616;2024-02-23T05:15:32;2.97;;;2.80;;
19560;SDS011;9927;47.792;10.616;2024-02-23T05:17:59;2.93;;;2.83;;
19560;SDS011;9927;47.792;10.616;2024-02-23T05:20:26;3.63;;;3.20;;
19560;SDS011;9927;47.792;10.616;2024-02-23T05:22:53;2.97;;;2.87;;
19560;SDS011;9927;47.792;10.616;2024-02-23T05:25:21;3.20;;;3.10;;
19560;SDS011;9927;47.792;10.616;2024-02-23T05:27:48;4.03;;;3.63;;
19560;SDS011;9927;47.792;10.616;2024-02-23T05:30:15;3.00;;;2.80;;
19560;SDS011;9927;47.792;10.616;2024-02-23T05:32:43;2.97;;;2.90;;
19560;SDS011;9927;47.792;10.616;2024-02-23T05:35:10;4.40;;;4.00;;
19560;SDS011;9927;47.792;10.616;2024-02-23T05:37:37;3.23;;;3.03;;
19560;SDS011;9927;47.792;10.616;2024-02-23T05:40:05;4.30;;;3.27;;
19560;SDS011;9927;47.792;10.616;2024-02-23T05:42:34;3.30;;;3.20;;
19560;SDS011;9927;47.792;10.616;2024-02-23T05:45:06;3.00;;;2.90;;
19560;SDS011;9927;47.792;10.616;2024-02-23T05:47:38;2.90;;;2.80;;
19560;SDS011;9927;47.792;10.616;2024-02-23T05:50:07;2.90;;;2.80;;
19560;SDS011;9927;47.792;10.616;2024-02-23T05:52:38;3.07;;;2.90;;
19560;SDS011;9927;47.792;10.616;2024-02-23T05:55:06;3.30;;;3.00;;
19560;SDS011;9927;47.792;10.616;2024-02-23T05:57:34;3.00;;;2.90;;
19560;SDS011;9927;47.792;10.616;2024-02-23T06:00:01;3.20;;;3.00;;
19560;SDS011;9927;47.792;10.616;2024-02-23T06:02:29;4.57;;;4.27;;
19560;SDS011;9927;47.792;10.616;2024-02-23T06:04:56;3.83;;;3.60;;
19560;SDS011;9927;47.792;10.616;2024-02-23T06:07:24;3.07;;;2.90;;
19560;SDS011;9927;47.792;10.616;2024-02-23T06:09:57;3.10;;;2.90;;
19560;SDS011;9927;47.792;10.616;2024-02-23T06:12:24;3.10;;;3.00;;
19560;SDS011;9927;47.792;10.616;2024-02-23T06:14:53;3.17;;;3.07;;
19560;SDS011;9927;47.792;10.616;2024-02-23T06:17:22;3.00;;;3.00;;
19560;SDS011;9927;47.792;10.616;2024-02-23T06:19:50;2.93;;;2.93;;
19560;SDS011;9927;47.792;10.616;2024-02-23T06:22:20;3.30;;;3.20;;
19560;SDS011;9927;47.792;10.616;2024-02-23T06:24:51;3.00;;;3.00;;
19560;SDS011;9927;47.792;10.616;2024-02-23T06:27:19;3.40;;;3.20;;
19560;SDS011;9927;47.792;10.616;2024-02-23T06:29:46;3.23;;;3.13;;
19560;SDS011;9927;47.792;10.616;2024-02-23T06:32:13;3.00;;;2.90;;
19560;SDS011;9927;47.792;10.616;2024-02-23T06:34:41;3.20;;;3.00;;
19560;SDS011;9927;47.792;10.616;2024-02-23T06:37:08;3.10;;;3.00;;
19560;SDS011;9927;47.792;10.616;2024-02-23T06:39:35;3.10;;;2.90;;
19560;SDS011;9927;47.792;10.616;2024-02-23T06:42:03;3.07;;;2.97;;
19560;SDS011;9927;47.792;10.616;2024-02-23T06:44:31;3.20;;;3.10;;
19560;SDS011;9927;47.792;10.616;2024-02-23T06:46:58;3.30;;;3.10;;
19560;SDS011;9927;47.792;10.616;2024-02-23T06:49:26;3.00;;;2.90;;
19560;SDS011;9927;47.792;10.616;2024-02-23T06:51:53;3.03;;;2.93;;
19560;SDS011;9927;47.792;10.616;2024-02-23T06:54:20;3.20;;;3.10;;
19560;SDS011;9927;47.792;10.616;2024-02-23T06:56:48;3.10;;;2.80;;
19560;SDS011;9927;47.792;10.616;2024-02-23T06:59:15;3.10;;;3.00;;
19560;SDS011;9927;47.792;10.616;2024-02-23T07:01:49;3.10;;;3.00;;
19560;SDS011;9927;47.792;10.616;2024-02-23T07:04:17;3.30;;;3.10;;
19560;SDS011;9927;47.792;10.616;2024-02-23T07:06:44;3.10;;;3.00;;
19560;SDS011;9927;47.792;10.616;2024-02-23T07:09:12;3.53;;;3.33;;
19560;SDS011;9927;47.792;10.616;2024-02-23T07:11:39;3.70;;;3.50;;
19560;SDS011;9927;47.792;10.616;2024-02-23T07:14:09;4.70;;;4.40;;
19560;SDS011;9927;47.792;10.616;2024-02-23T07:16:39;4.20;;;3.90;;
19560;SDS011;9927;47.792;10.616;2024-02-23T07:19:07;3.73;;;3.53;;
19560;SDS011;9927;47.792;10.616;2024-02-23T07:21:36;3.73;;;3.53;;
19560;SDS011;9927;47.792;10.616;2024-02-23T07:24:08;3.80;;;3.53;;
19560;SDS011;9927;47.792;10.616;2024-02-23T07:26:35;3.00;;;2.90;;
19560;SDS011;9927;47.792;10.616;2024-02-23T07:29:03;3.03;;;2.97;;
19560;SDS011;9927;47.792;10.616;2024-02-23T07:31:30;3.20;;;3.10;;
19560;SDS011;9927;47.792;10.616;2024-02-23T07:33:58;3.60;;;3.50;;
19560;SDS011;9927;47.792;10.616;2024-02-23T07:36:27;3.57;;;3.47;;
19560;SDS011;9927;47.792;10.616;2024-02-23T07:38:54;3.70;;;3.50;;
19560;SDS011;9927;47.792;10.616;2024-02-23T07:41:21;3.53;;;3.40;;
19560;SDS011;9927;47.792;10.616;2024-02-23T07:43:49;3.10;;;3.00;;
19560;SDS011;9927;47.792;10.616;2024-02-23T07:46:16;2.80;;;2.70;;
19560;SDS011;9927;47.792;10.616;2024-02-23T07:48:43;3.10;;;3.00;;
19560;SDS011;9927;47.792;10.616;2024-02-23T07:51:11;3.83;;;3.63;;
19560;SDS011;9927;47.792;10.616;2024-02-23T07:53:38;3.00;;;2.80;;
19560;SDS011;9927;47.792;10.616;2024-02-23T07:56:07;2.90;;;2.90;;
19560;SDS011;9927;47.792;10.616;2024-02-23T07:58:34;3.80;;;3.70;;
19560;SDS011;9927;47.792;10.616;2024-02-23T08:01:02;7.77;;;7.00;;
19560;SDS011;9927;47.792;10.616;2024-02-23T08:03:29;4.10;;;3.80;;
19560;SDS011;9927;47.792;10.616;2024-02-23T08:05:56;3.67;;;3.50;;
19560;SDS011;9927;47.792;10.616;2024-02-23T08:08:28;4.10;;;3.70;;
19560;SDS011;9927;47.792;10.616;2024-02-23T08:10:59;3.10;;;3.00;;
19560;SDS011;9927;47.792;10.616;2024-02-23T08:13:30;2.80;;;2.80;;
19560;SDS011;9927;47.792;10.616;2024-02-23T08:15:57;2.70;;;2.60;;
19560;SDS011;9927;47.792;10.616;2024-02-23T08:18:25;3.20;;;3.10;;
19560;SDS011;9927;47.792;10.616;2024-02-23T08:20:52;3.53;;;3.33;;
19560;SDS011;9927;47.792;10.616;2024-02-23T08:23:19;3.50;;;3.30;;
19560;SDS011;9927;47.792;10.616;2024-02-23T08:25:47;3.20;;;3.10;;
19560;SDS011;9927;47.792;10.616;2024-02-23T08:28:14;3.10;;;2.87;;
19560;SDS011;9927;47.792;10.616;2024-02-23T08:30:41;2.90;;;2.70;;
19560;SDS011;9927;47.792;10.616;2024-02-23T08:33:09;3.00;;;2.90;;
19560;SDS011;9927;47.792;10.616;2024-02-23T08:35:36;3.40;;;3.20;;
19560;SDS011;9927;47.792;10.616;2024-02-23T08:38:04;2.90;;;2.80;;
19560;SDS011;9927;47.792;10.616;2024-02-23T08:40:32;2.90;;;2.80;;
19560;SDS011;9927;47.792;10.616;2024-02-23T08:42:59;2.70;;;2.70;;
19560;SDS011;9927;47.792;10.616;2024-02-23T08:45:27;3.07;;;2.97;;
19560;SDS011;9927;47.792;10.616;2024-02-23T08:47:54;3.13;;;3.03;;
19560;SDS011;9927;47.792;10.616;2024-02-23T08:50:21;3.20;;;2.90;;
19560;SDS011;9927;47.792;10.616;2024-02-23T08:52:49;2.80;;;2.70;;
19560;SDS011;9927;47.792;10.616;2024-02-23T08:55:16;3.17;;;3.00;;
19560;SDS011;9927;47.792;10.616;2024-02-23T08:57:44;3.10;;;3.00;;
19560;SDS011;9927;47.792;10.616;2024-02-23T09:00:11;3.10;;;3.00;;
19560;SDS011;9927;47.792;10.616;2024-02-23T09:02:43;2.57;;;2.57;;
19560;SDS011;9927;47.792;10.616;2024-02-23T09:05:11;2.67;;;2.67;;
19560;SDS011;9927;47.792;10.616;2024-02-23T09:07:38;3.20;;;3.10;;
19560;SDS011;9927;47.792;10.616;2024-02-23T09:10:06;2.90;;;2.80;;
19560;SDS011;9927;47.792;10.616;2024-02-23T09:12:34;3.30;;;3.20;;
19560;SDS011;9927;47.792;10.616;2024-02-23T09:15:01;3.70;;;3.50;;
19560;SDS011;9927;47.792;10.616;2024-02-23T09:17:28;3.30;;;3.10;;
19560;SDS011;9927;47.792;10.616;2024-02-23T09:19:55;3.00;;;2.90;;
19560;SDS011;9927;47.792;10.616;2024-02-23T09:22:23;2.80;;;2.70;;
19560;SDS011;9927;47.792;10.616;2024-02-23T09:24:50;2.60;;;2.50;;
19560;SDS011;9927;47.792;10.616;2024-02-23T09:27:20;2.87;;;2.77;;
19560;SDS011;9927;47.792;10.616;2024-02-23T09:29:47;3.37;;;3.17;;
19560;SDS011;9927;47.792;10.616;2024-02-23T09:32:15;3.60;;;3.50;;
19560;SDS011;9927;47.792;10.616;2024-02-23T09:34:42;4.00;;;3.80;;
19560;SDS011;9927;47.792;10.616;2024-02-23T09:37:10;3.23;;;3.13;;
19560;SDS011;9927;47.792;10.616;2024-02-23T09:39:37;4.87;;;3.20;;
19560;SDS011;9927;47.792;10.616;2024-02-23T09:42:06;4.50;;;4.30;;
19560;SDS011;9927;47.792;10.616;2024-02-23T09:44:36;4.30;;;3.77;;
19560;SDS011;9927;47.792;10.616;2024-02-23T09:47:04;3.63;;;3.33;;
19560;SDS011;9927;47.792;10.616;2024-02-23T09:49:40;3.50;;;3.40;;
19560;SDS011;9927;47.792;10.616;2024-02-23T09:52:08;3.50;;;3.40;;
19560;SDS011;9927;47.792;10.616;2024-02-23T09:54:39;2.97;;;2.90;;
19560;SDS011;9927;47.792;10.616;2024-02-23T09:57:07;3.07;;;2.90;;
19560;SDS011;9927;47.792;10.616;2024-02-23T09:59:35;15.10;;;12.50;;
19560;SDS011;9927;47.792;10.616;2024-02-23T10:02:07;27.40;;;20.63;;
19560;SDS011;9927;47.792;10.616;2024-02-23T10:04:38;9.10;;;8.40;;
19560;SDS011;9927;47.792;10.616;2024-02-23T10:07:07;50.80;;;30.90;;
19560;SDS011;9927;47.792;10.616;2024-02-23T10:09:35;13.63;;;9.97;;
19560;SDS011;9927;47.792;10.616;2024-02-23T10:12:02;19.07;;;12.63;;
19560;SDS011;9927;47.792;10.616;2024-02-23T10:14:32;12.63;;;10.07;;
19560;SDS011;9927;47.792;10.616;2024-02-23T10:16:59;4.57;;;3.60;;
19560;SDS011;9927;47.792;10.616;2024-02-23T10:19:28;2.73;;;2.73;;
19560;SDS011;9927;47.792;10.616;2024-02-23T10:21:56;3.03;;;2.90;;
19560;SDS011;9927;47.792;10.616;2024-02-23T10:24:25;3.03;;;2.83;;
19560;SDS011;9927;47.792;10.616;2024-02-23T10:26:52;2.97;;;2.80;;
19560;SDS011;9927;47.792;10.616;2024-02-23T10:29:19;3.10;;;3.00;;
19560;SDS011;9927;47.792;10.616;2024-02-23T10:31:48;3.17;;;3.07;;
19560;SDS011;9927;47.792;10.616;2024-02-23T10:34:19;4.20;;;3.90;;
19560;SDS011;9927;47.792;10.616;2024-02-23T10:36:47;3.50;;;3.30;;
19560;SDS011;9927;47.792;10.616;2024-02-23T10:39:17;3.00;;;2.90;;
19560;SDS011;9927;47.792;10.616;2024-02-23T10:41:57;2.60;;;2.60;;
19560;SDS011;9927;47.792;10.616;2024-02-23T10:44:28;3.10;;;2.90;;
19560;SDS011;9927;47.792;10.616;2024-02-23T10:46:56;3.10;;;3.00;;
19560;SDS011;9927;47.792;10.616;2024-02-23T10:49:26;3.07;;;2.87;;
19560;SDS011;9927;47.792;10.616;2024-02-23T10:51:55;2.93;;;2.83;;
19560;SDS011;9927;47.792;10.616;2024-02-23T10:54:23;3.50;;;3.20;;
19560;SDS011;9927;47.792;10.616;2024-02-23T10:56:50;5.67;;;5.07;;
19560;SDS011;9927;47.792;10.616;2024-02-23T10:59:18;3.60;;;3.50;;
19560;SDS011;9927;47.792;10.616;2024-02-23T11:01:46;6.70;;;5.60;;
19560;SDS011;9927;47.792;10.616;2024-02-23T11:04:16;3.13;;;3.00;;
19560;SDS011;9927;47.792;10.616;2024-02-23T11:06:51;3.13;;;2.93;;
19560;SDS011;9927;47.792;10.616;2024-02-23T11:09:22;2.83;;;2.73;;
19560;SDS011;9927;47.792;10.616;2024-02-23T11:11:54;2.97;;;2.87;;
19560;SDS011;9927;47.792;10.616;2024-02-23T11:14:31;3.00;;;2.80;;
19560;SDS011;9927;47.792;10.616;2024-02-23T11:17:17;2.70;;;2.60;;
19560;SDS011;9927;47.792;10.616;2024-02-23T11:19:49;3.27;;;3.07;;
19560;SDS011;9927;47.792;10.616;2024-02-23T11:22:24;3.00;;;2.80;;
19560;SDS011;9927;47.792;10.616;2024-02-23T11:25:04;2.70;;;2.60;;
19560;SDS011;9927;47.792;10.616;2024-02-23T11:27:35;2.70;;;2.60;;
19560;SDS011;9927;47.792;10.616;2024-02-23T11:30:04;2.50;;;2.50;;
19560;SDS011;9927;47.792;10.616;2024-02-23T11:32:46;2.87;;;2.67;;
19560;SDS011;9927;47.792;10.616;2024-02-23T11:35:15;2.80;;;2.70;;
19560;SDS011;9927;47.792;10.616;2024-02-23T11:37:54;3.07;;;2.90;;
19560;SDS011;9927;47.792;10.616;2024-02-23T11:40:26;5.03;;;3.17;;
19560;SDS011;9927;47.792;10.616;2024-02-23T11:42:56;3.20;;;3.00;;
19560;SDS011;9927;47.792;10.616;2024-02-23T11:45:30;3.43;;;3.23;;
19560;SDS011;9927;47.792;10.616;2024-02-23T11:47:58;3.10;;;3.00;;
19560;SDS011;9927;47.792;10.616;2024-02-23T11:50:26;3.23;;;2.93;;
19560;SDS011;9927;47.792;10.616;2024-02-23T11:52:54;4.53;;;4.23;;
19560;SDS011;9927;47.792;10.616;2024-02-23T11:55:22;2.93;;;2.83;;
19560;SDS011;9927;47.792;10.616;2024-02-23T11:57:50;2.60;;;2.50;;
19560;SDS011;9927;47.792;10.616;2024-02-23T12:00:31;2.73;;;2.63;;
19560;SDS011;9927;47.792;10.616;2024-02-23T12:02:59;2.60;;;2.60;;
19560;SDS011;9927;47.792;10.616;2024-02-23T12:05:26;2.60;;;2.50;;
19560;SDS011;9927;47.792;10.616;2024-02-23T12:07:55;2.63;;;2.60;;
19560;SDS011;9927;47.792;10.616;2024-02-23T12:10:23;2.77;;;2.63;;
19560;SDS011;9927;47.792;10.616;2024-02-23T12:12:53;3.30;;;3.10;;
19560;SDS011;9927;47.792;10.616;2024-02-23T12:15:21;3.13;;;2.93;;
19560;SDS011;9927;47.792;10.616;2024-02-23T12:17:48;2.80;;;2.60;;
19560;SDS011;9927;47.792;10.616;2024-02-23T12:20:16;3.13;;;2.90;;
19560;SDS011;9927;47.792;10.616;2024-02-23T12:22:44;2.60;;;2.60;;
19560;SDS011;9927;47.792;10.616;2024-02-23T12:25:12;2.60;;;2.50;;
19560;SDS011;9927;47.792;10.616;2024-02-23T12:27:40;3.00;;;2.90;;
19560;SDS011;9927;47.792;10.616;2024-02-23T12:30:14;2.80;;;2.70;;
19560;SDS011;9927;47.792;10.616;2024-02-23T12:32:42;2.50;;;2.50;;
19560;SDS011;9927;47.792;10.616;2024-02-23T12:35:11;2.40;;;2.30;;
19560;SDS011;9927;47.792;10.616;2024-02-23T12:37:39;2.80;;;2.60;;
19560;SDS011;9927;47.792;10.616;2024-02-23T12:40:11;2.60;;;2.60;;
19560;SDS011;9927;47.792;10.616;2024-02-23T12:42:39;2.20;;;2.20;;
19560;SDS011;9927;47.792;10.616;2024-02-23T12:45:07;2.57;;;2.57;;
19560;SDS011;9927;47.792;10.616;2024-02-23T12:47:35;3.27;;;3.17;;
19560;SDS011;9927;47.792;10.616;2024-02-23T12:50:02;3.27;;;2.97;;
19560;SDS011;9927;47.792;10.616;2024-02-23T12:52:30;2.70;;;2.60;;
19560;SDS011;9927;47.792;10.616;2024-02-23T12:54:58;2.80;;;2.70;;
19560;SDS011;9927;47.792;10.616;2024-02-23T12:57:25;2.17;;;2.17;;
19560;SDS011;9927;47.792;10.616;2024-02-23T12:59:52;2.40;;;2.40;;
19560;SDS011;9927;47.792;10.616;2024-02-23T13:02:19;4.07;;;3.87;;
19560;SDS011;9927;47.792;10.616;2024-02-23T13:04:47;11.70;;;10.70;;
19560;SDS011;9927;47.792;10.616;2024-02-23T13:07:17;5.00;;;4.80;;
19560;SDS011;9927;47.792;10.616;2024-02-23T13:09:45;5.33;;;5.10;;
19560;SDS011;9927;47.792;10.616;2024-02-23T13:12:12;3.50;;;3.40;;
19560;SDS011;9927;47.792;10.616;2024-02-23T13:14:40;4.77;;;4.63;;
19560;SDS011;9927;47.792;10.616;2024-02-23T13:17:07;2.60;;;2.60;;
19560;SDS011;9927;47.792;10.616;2024-02-23T13:19:34;3.10;;;3.00;;
19560;SDS011;9927;47.792;10.616;2024-02-23T13:22:02;2.70;;;2.60;;
19560;SDS011;9927;47.792;10.616;2024-02-23T13:24:29;2.40;;;2.40;;
19560;SDS011;9927;47.792;10.616;2024-02-23T13:26:56;3.10;;;3.00;;
19560;SDS011;9927;47.792;10.616;2024-02-23T13:29:23;9.80;;;6.93;;
19560;SDS011;9927;47.792;10.616;2024-02-23T13:31:51;6.50;;;5.67;;
19560;SDS011;9927;47.792;10.616;2024-02-23T13:34:18;4.40;;;4.00;;
19560;SDS011;9927;47.792;10.616;2024-02-23T13:36:46;14.33;;;9.87;;
19560;SDS011;9927;47.792;10.616;2024-02-23T13:39:14;33.17;;;22.40;;
19560;SDS011;9927;47.792;10.616;2024-02-23T13:41:41;13.60;;;8.33;;
19560;SDS011;9927;47.792;10.616;2024-02-23T13:44:09;6.80;;;6.27;;
19560;SDS011;9927;47.792;10.616;2024-02-23T13:46:38;3.40;;;3.30;;
19560;SDS011;9927;47.792;10.616;2024-02-23T13:49:06;2.87;;;2.70;;
19560;SDS011;9927;47.792;10.616;2024-02-23T13:51:35;3.20;;;3.20;;
19560;SDS011;9927;47.792;10.616;2024-02-23T13:54:03;3.40;;;3.30;;
19560;SDS011;9927;47.792;10.616;2024-02-23T13:56:30;2.77;;;2.60;;
19560;SDS011;9927;47.792;10.616;2024-02-23T13:58:57;2.60;;;2.60;;
19560;SDS011;9927;47.792;10.616;2024-02-23T14:01:25;2.40;;;2.30;;
19560;SDS011;9927;47.792;10.616;2024-02-23T14:03:52;3.00;;;2.90;;
19560;SDS011;9927;47.792;10.616;2024-02-23T14:06:19;3.70;;;3.50;;
19560;SDS011;9927;47.792;10.616;2024-02-23T14:08:47;3.40;;;3.13;;
19560;SDS011;9927;47.792;10.616;2024-02-23T14:11:15;6.50;;;5.17;;
19560;SDS011;9927;47.792;10.616;2024-02-23T14:13:43;4.40;;;4.00;;
19560;SDS011;9927;47.792;10.616;2024-02-23T14:16:17;5.40;;;4.87;;
19560;SDS011;9927;47.792;10.616;2024-02-23T14:18:45;4.30;;;3.90;;
19560;SDS011;9927;47.792;10.616;2024-02-23T14:21:12;4.23;;;3.57;;
19560;SDS011;9927;47.792;10.616;2024-02-23T14:23:45;3.10;;;3.00;;
19560;SDS011;9927;47.792;10.616;2024-02-23T14:26:14;3.13;;;3.03;;
19560;SDS011;9927;47.792;10.616;2024-02-23T14:28:42;7.03;;;5.90;;
19560;SDS011;9927;47.792;10.616;2024-02-23T14:31:09;6.53;;;5.70;;
19560;SDS011;9927;47.792;10.616;2024-02-23T14:33:36;6.13;;;4.60;;
19560;SDS011;9927;47.792;10.616;2024-02-23T14:36:04;3.67;;;3.37;;
19560;SDS011;9927;47.792;10.616;2024-02-23T14:38:31;3.10;;;3.00;;
19560;SDS011;9927;47.792;10.616;2024-02-23T14:40:59;3.17;;;3.00;;
19560;SDS011;9927;47.792;10.616;2024-02-23T14:43:26;2.90;;;2.87;;
19560;SDS011;9927;47.792;10.616;2024-02-23T14:45:53;3.20;;;2.90;;
19560;SDS011;9927;47.792;10.616;2024-02-23T14:48:21;3.17;;;3.07;;
19560;SDS011;9927;47.792;10.616;2024-02-23T14:50:48;2.83;;;2.80;;
19560;SDS011;9927;47.792;10.616;2024-02-23T14:53:16;3.00;;;2.90;;
19560;SDS011;9927;47.792;10.616;2024-02-23T14:55:43;3.37;;;3.17;;
19560;SDS011;9927;47.792;10.616;2024-02-23T14:58:11;3.13;;;3.00;;
19560;SDS011;9927;47.792;10.616;2024-02-23T15:00:38;3.17;;;2.90;;
19560;SDS011;9927;47.792;10.616;2024-02-23T15:03:06;2.90;;;2.80;;
19560;SDS011;9927;47.792;10.616;2024-02-23T15:05:35;5.13;;;4.77;;
19560;SDS011;9927;47.792;10.616;2024-02-23T15:08:03;5.20;;;4.90;;
19560;SDS011;9927;47.792;10.616;2024-02-23T15:10:31;3.77;;;3.47;;
19560;SDS011;9927;47.792;10.616;2024-02-23T15:12:58;5.37;;;4.63;;
19560;SDS011;9927;47.792;10.616;2024-02-23T15:15:26;4.87;;;4.53;;
19560;SDS011;9927;47.792;10.616;2024-02-23T15:17:53;4.40;;;4.20;;
19560;SDS011;9927;47.792;10.616;2024-02-23T15:20:22;3.80;;;3.60;;
19560;SDS011;9927;47.792;10.616;2024-02-23T15:22:49;4.13;;;3.97;;
19560;SDS011;9927;47.792;10.616;2024-02-23T15:25:17;3.80;;;3.60;;
19560;SDS011;9927;47.792;10.616;2024-02-23T15:27:44;3.20;;;3.10;;
19560;SDS011;9927;47.792;10.616;2024-02-23T15:30:11;3.10;;;2.90;;
19560;SDS011;9927;47.792;10.616;2024-02-23T15:32:39;3.20;;;3.10;;
19560;SDS011;9927;47.792;10.616;2024-02-23T15:35:07;5.00;;;4.60;;
19560;SDS011;9927;47.792;10.616;2024-02-23T15:37:34;5.30;;;4.90;;
19560;SDS011;9927;47.792;10.616;2024-02-23T15:40:02;5.17;;;4.77;;
19560;SDS011;9927;47.792;10.616;2024-02-23T15:42:30;4.60;;;4.23;;
19560;SDS011;9927;47.792;10.616;2024-02-23T15:44:58;3.90;;;3.60;;
19560;SDS011;9927;47.792;10.616;2024-02-23T15:47:29;3.50;;;3.40;;
19560;SDS011;9927;47.792;10.616;2024-02-23T15:49:57;4.93;;;4.63;;
19560;SDS011;9927;47.792;10.616;2024-02-23T15:52:44;4.83;;;4.53;;
19560;SDS011;9927;47.792;10.616;2024-02-23T15:55:12;4.00;;;3.70;;
19560;SDS011;9927;47.792;10.616;2024-02-23T15:57:39;5.07;;;4.77;;
19560;SDS011;9927;47.792;10.616;2024-02-23T16:00:07;3.40;;;3.30;;
19560;SDS011;9927;47.792;10.616;2024-02-23T16:02:36;4.97;;;4.67;;
19560;SDS011;9927;47.792;10.616;2024-02-23T16:05:04;6.43;;;5.83;;
19560;SDS011;9927;47.792;10.616;2024-02-23T16:07:34;5.23;;;4.93;;
19560;SDS011;9927;47.792;10.616;2024-02-23T16:10:01;4.57;;;4.27;;
19560;SDS011;9927;47.792;10.616;2024-02-23T16:12:29;4.40;;;4.20;;
19560;SDS011;9927;47.792;10.616;2024-02-23T16:14:56;4.93;;;4.53;;
19560;SDS011;9927;47.792;10.616;2024-02-23T16:17:23;5.13;;;4.83;;
19560;SDS011;9927;47.792;10.616;2024-02-23T16:19:51;7.00;;;6.40;;
19560;SDS011;9927;47.792;10.616;2024-02-23T16:22:18;5.23;;;4.93;;
19560;SDS011;9927;47.792;10.616;2024-02-23T16:24:46;12.80;;;10.43;;
19560;SDS011;9927;47.792;10.616;2024-02-23T16:27:13;24.10;;;16.03;;
19560;SDS011;9927;47.792;10.616;2024-02-23T16:29:41;19.67;;;13.40;;
19560;SDS011;9927;47.792;10.616;2024-02-23T16:32:08;23.33;;;15.37;;
19560;SDS011;9927;47.792;10.616;2024-02-23T16:34:35;13.97;;;11.23;;
19560;SDS011;9927;47.792;10.616;2024-02-23T16:37:03;11.33;;;10.10;;
19560;SDS011;9927;47.792;10.616;2024-02-23T16:39:30;5.03;;;4.53;;
19560;SDS011;9927;47.792;10.616;2024-02-23T16:41:58;6.30;;;5.70;;
19560;SDS011;9927;47.792;10.616;2024-02-23T16:44:25;5.27;;;4.83;;
19560;SDS011;9927;47.792;10.616;2024-02-23T16:46:52;5.50;;;4.53;;
19560;SDS011;9927;47.792;10.616;2024-02-23T16:49:19;7.50;;;6.97;;
19560;SDS011;9927;47.792;10.616;2024-02-23T16:51:47;6.90;;;6.40;;
19560;SDS011;9927;47.792;10.616;2024-02-23T16:54:14;6.33;;;5.93;;
19560;SDS011;9927;47.792;10.616;2024-02-23T16:56:43;9.53;;;8.63;;
19560;SDS011;9927;47.792;10.616;2024-02-23T16:59:12;10.20;;;9.20;;
19560;SDS011;9927;47.792;10.616;2024-02-23T17:01:40;12.43;;;8.10;;
19560;SDS011;9927;47.792;10.616;2024-02-23T17:04:09;7.30;;;6.47;;
19560;SDS011;9927;47.792;10.616;2024-02-23T17:06:36;5.67;;;5.20;;
19560;SDS011;9927;47.792;10.616;2024-02-23T17:09:03;5.30;;;5.00;;
19560;SDS011;9927;47.792;10.616;2024-02-23T17:11:34;5.40;;;5.00;;
19560;SDS011;9927;47.792;10.616;2024-02-23T17:14:01;6.00;;;5.60;;
19560;SDS011;9927;47.792;10.616;2024-02-23T17:16:29;6.33;;;5.87;;
19560;SDS011;9927;47.792;10.616;2024-02-23T17:18:56;6.80;;;6.10;;
19560;SDS011;9927;47.792;10.616;2024-02-23T17:21:24;7.07;;;6.47;;
19560;SDS011;9927;47.792;10.616;2024-02-23T17:23:51;5.93;;;5.33;;
19560;SDS011;9927;47.792;10.616;2024-02-23T17:26:18;6.87;;;6.27;;
19560;SDS011;9927;47.792;10.616;2024-02-23T17:28:46;8.50;;;7.70;;
19560;SDS011;9927;47.792;10.616;2024-02-23T17:31:16;7.40;;;6.80;;
19560;SDS011;9927;47.792;10.616;2024-02-23T17:33:44;8.53;;;7.67;;
19560;SDS011;9927;47.792;10.616;2024-02-23T17:36:11;12.23;;;8.17;;
19560;SDS011;9927;47.792;10.616;2024-02-23T17:38:38;6.40;;;5.80;;
19560;SDS011;9927;47.792;10.616;2024-02-23T17:41:06;5.97;;;5.47;;
19560;SDS011;9927;47.792;10.616;2024-02-23T17:43:33;5.10;;;4.70;;
19560;SDS011;9927;47.792;10.616;2024-02-23T17:46:00;4.67;;;4.23;;
19560;SDS011;9927;47.792;10.616;2024-02-23T17:48:28;4.70;;;4.50;;
19560;SDS011;9927;47.792;10.616;2024-02-23T17:50:55;5.50;;;5.20;;
19560;SDS011;9927;47.792;10.616;2024-02-23T17:53:22;5.47;;;5.17;;
19560;SDS011;9927;47.792;10.616;2024-02-23T17:55:49;4.90;;;4.60;;
19560;SDS011;9927;47.792;10.616;2024-02-23T17:58:20;6.03;;;5.43;;
19560;SDS011;9927;47.792;10.616;2024-02-23T18:00:47;5.90;;;5.40;;
19560;SDS011;9927;47.792;10.616;2024-02-23T18:03:15;5.33;;;5.00;;
19560;SDS011;9927;47.792;10.616;2024-02-23T18:05:45;4.90;;;4.60;;
19560;SDS011;9927;47.792;10.616;2024-02-23T18:08:12;5.00;;;4.60;;
19560;SDS011;9927;47.792;10.616;2024-02-23T18:10:39;4.30;;;4.10;;
19560;SDS011;9927;47.792;10.616;2024-02-23T18:13:06;4.47;;;4.20;;
19560;SDS011;9927;47.792;10.616;2024-02-23T18:15:34;4.67;;;4.47;;
19560;SDS011;9927;47.792;10.616;2024-02-23T18:18:01;4.63;;;4.33;;
19560;SDS011;9927;47.792;10.616;2024-02-23T18:20:29;4.43;;;4.13;;
19560;SDS011;9927;47.792;10.616;2024-02-23T18:22:56;4.10;;;3.90;;
19560;SDS011;9927;47.792;10.616;2024-02-23T18:25:24;4.50;;;4.20;;
19560;SDS011;9927;47.792;10.616;2024-02-23T18:27:51;4.10;;;3.90;;
19560;SDS011;9927;47.792;10.616;2024-02-23T18:30:19;3.90;;;3.70;;
19560;SDS011;9927;47.792;10.616;2024-02-23T18:32:46;3.80;;;3.70;;
19560;SDS011;9927;47.792;10.616;2024-02-23T18:35:13;3.70;;;3.60;;
19560;SDS011;9927;47.792;10.616;2024-02-23T18:37:41;4.10;;;3.90;;
19560;SDS011;9927;47.792;10.616;2024-02-23T18:40:11;3.80;;;3.70;;
19560;SDS011;9927;47.792;10.616;2024-02-23T18:42:38;4.30;;;4.10;;
19560;SDS011;9927;47.792;10.616;2024-02-23T18:45:06;4.00;;;3.80;;
19560;SDS011;9927;47.792;10.616;2024-02-23T18:47:33;4.20;;;4.00;;
19560;SDS011;9927;47.792;10.616;2024-02-23T18:50:00;4.03;;;3.83;;
19560;SDS011;9927;47.792;10.616;2024-02-23T18:52:28;4.40;;;4.20;;